Schaerbeek, Belgium
Current Conditions -  °F | °C
As of 3:20 PM on Friday 28 Nov 2014 (Local Time) from EBBR Reporting Station
Clear Clear  
Wind Chill: 11°   Ceiling: Unl
Heat Index: 11°   Visibility: 6mi
Dew Point:   Wind: 5mph
Humidity: 76%   Direction: NA
Pressure: 29.71"   Gusts: NA
Location:  50.86°N, 4.39°E
Report Text: EBBR 281420Z VRB04KT CAVOK 11/07 Q1006 NOSIG
Loading
Personal Weather Stations






























Interactive Weather Map New forecast layout! Learn more

10-Day Weather Forecast

Advertisements
Track Severe Weather on mobile